sensor_id;sensor_type;location;lat;lon;timestamp;pressure;altitude;pressure_sealevel;temperature;humidity
23341;BME280;12239;53.404;23.492;2022-09-25T00:00:18;99694.77;;;2.14;100.00
23341;BME280;12239;53.404;23.492;2022-09-25T00:03:10;99691.86;;;2.10;100.00
23341;BME280;12239;53.404;23.492;2022-09-25T00:05:43;99686.98;;;2.05;100.00
23341;BME280;12239;53.404;23.492;2022-09-25T00:08:12;99687.23;;;2.02;100.00
23341;BME280;12239;53.404;23.492;2022-09-25T00:10:46;99687.50;;;2.01;100.00
23341;BME280;12239;53.404;23.492;2022-09-25T00:13:19;99687.29;;;1.98;100.00
23341;BME280;12239;53.404;23.492;2022-09-25T00:15:49;99685.98;;;1.97;100.00
23341;BME280;12239;53.404;23.492;2022-09-25T00:18:39;99686.88;;;1.94;100.00
23341;BME280;12239;53.404;23.492;2022-09-25T00:21:26;99688.59;;;1.92;100.00
23341;BME280;12239;53.404;23.492;2022-09-25T00:23:58;99687.71;;;1.90;100.00
23341;BME280;12239;53.404;23.492;2022-09-25T00:26:28;99680.45;;;1.87;100.00
23341;BME280;12239;53.404;23.492;2022-09-25T00:29:01;99678.54;;;1.87;100.00
23341;BME280;12239;53.404;23.492;2022-09-25T00:31:31;99679.37;;;1.89;100.00
23341;BME280;12239;53.404;23.492;2022-09-25T00:34:01;99673.20;;;1.88;100.00
23341;BME280;12239;53.404;23.492;2022-09-25T00:36:50;99675.10;;;1.90;100.00
23341;BME280;12239;53.404;23.492;2022-09-25T00:39:19;99674.05;;;1.93;100.00
23341;BME280;12239;53.404;23.492;2022-09-25T00:41:52;99671.69;;;1.96;100.00
23341;BME280;12239;53.404;23.492;2022-09-25T00:47:29;99663.73;;;2.01;100.00
23341;BME280;12239;53.404;23.492;2022-09-25T00:50:01;99668.06;;;2.06;100.00
23341;BME280;12239;53.404;23.492;2022-09-25T00:52:34;99665.02;;;2.11;100.00
23341;BME280;12239;53.404;23.492;2022-09-25T00:55:06;99666.50;;;2.12;100.00
23341;BME280;12239;53.404;23.492;2022-09-25T00:57:35;99663.70;;;2.13;100.00
23341;BME280;12239;53.404;23.492;2022-09-25T01:00:08;99662.80;;;2.13;100.00
23341;BME280;12239;53.404;23.492;2022-09-25T01:02:39;99666.98;;;2.13;100.00
23341;BME280;12239;53.404;23.492;2022-09-25T01:05:15;99668.11;;;2.11;100.00
23341;BME280;12239;53.404;23.492;2022-09-25T01:07:45;99666.59;;;2.10;100.00
23341;BME280;12239;53.404;23.492;2022-09-25T01:10:15;99665.35;;;2.09;100.00
23341;BME280;12239;53.404;23.492;2022-09-25T01:12:47;99666.29;;;2.10;100.00
23341;BME280;12239;53.404;23.492;2022-09-25T01:15:17;99666.08;;;2.10;100.00
23341;BME280;12239;53.404;23.492;2022-09-25T01:18:11;99666.29;;;2.10;100.00
23341;BME280;12239;53.404;23.492;2022-09-25T01:20:49;99663.56;;;2.10;100.00
23341;BME280;12239;53.404;23.492;2022-09-25T01:23:36;99663.23;;;2.07;100.00
23341;BME280;12239;53.404;23.492;2022-09-25T01:26:16;99656.80;;;2.01;100.00
23341;BME280;12239;53.404;23.492;2022-09-25T01:28:59;99660.95;;;1.97;100.00
23341;BME280;12239;53.404;23.492;2022-09-25T01:31:31;99658.84;;;1.94;100.00
23341;BME280;12239;53.404;23.492;2022-09-25T01:34:04;99662.87;;;1.89;100.00
23341;BME280;12239;53.404;23.492;2022-09-25T01:36:40;99664.84;;;1.83;100.00
23341;BME280;12239;53.404;23.492;2022-09-25T01:39:16;99669.03;;;1.76;100.00
23341;BME280;12239;53.404;23.492;2022-09-25T01:41:49;99669.23;;;1.67;100.00
23341;BME280;12239;53.404;23.492;2022-09-25T01:44:21;99669.76;;;1.58;100.00
23341;BME280;12239;53.404;23.492;2022-09-25T01:46:58;99675.91;;;1.50;100.00
23341;BME280;12239;53.404;23.492;2022-09-25T01:49:32;99671.96;;;1.43;100.00
23341;BME280;12239;53.404;23.492;2022-09-25T01:52:04;99670.27;;;1.37;100.00
23341;BME280;12239;53.404;23.492;2022-09-25T01:54:36;99668.95;;;1.33;100.00
23341;BME280;12239;53.404;23.492;2022-09-25T01:57:07;99662.05;;;1.30;100.00
23341;BME280;12239;53.404;23.492;2022-09-25T01:59:39;99662.85;;;1.28;100.00
23341;BME280;12239;53.404;23.492;2022-09-25T02:02:12;99666.46;;;1.27;100.00
23341;BME280;12239;53.404;23.492;2022-09-25T02:05:03;99668.05;;;1.25;100.00
23341;BME280;12239;53.404;23.492;2022-09-25T02:07:36;99670.46;;;1.24;100.00
23341;BME280;12239;53.404;23.492;2022-09-25T02:10:09;99672.34;;;1.25;100.00
23341;BME280;12239;53.404;23.492;2022-09-25T02:12:43;99672.27;;;1.24;100.00
23341;BME280;12239;53.404;23.492;2022-09-25T02:15:14;99673.61;;;1.24;100.00
23341;BME280;12239;53.404;23.492;2022-09-25T02:17:50;99668.02;;;1.24;100.00
23341;BME280;12239;53.404;23.492;2022-09-25T02:20:38;99668.99;;;1.24;100.00
23341;BME280;12239;53.404;23.492;2022-09-25T02:23:12;99662.71;;;1.25;100.00
23341;BME280;12239;53.404;23.492;2022-09-25T02:25:49;99657.84;;;1.27;100.00
23341;BME280;12239;53.404;23.492;2022-09-25T02:28:20;99658.55;;;1.30;100.00
23341;BME280;12239;53.404;23.492;2022-09-25T02:30:53;99657.05;;;1.32;100.00
23341;BME280;12239;53.404;23.492;2022-09-25T02:33:24;99653.68;;;1.35;100.00
23341;BME280;12239;53.404;23.492;2022-09-25T02:36:18;99654.92;;;1.40;100.00
23341;BME280;12239;53.404;23.492;2022-09-25T02:38:48;99653.41;;;1.45;100.00
23341;BME280;12239;53.404;23.492;2022-09-25T02:41:23;99655.02;;;1.50;100.00
23341;BME280;12239;53.404;23.492;2022-09-25T02:43:57;99657.59;;;1.53;100.00
23341;BME280;12239;53.404;23.492;2022-09-25T02:46:53;99657.81;;;1.53;100.00
23341;BME280;12239;53.404;23.492;2022-09-25T02:49:28;99659.23;;;1.55;100.00
23341;BME280;12239;53.404;23.492;2022-09-25T02:52:04;99651.36;;;1.57;100.00
23341;BME280;12239;53.404;23.492;2022-09-25T02:54:38;99654.77;;;1.59;100.00
23341;BME280;12239;53.404;23.492;2022-09-25T02:57:33;99648.83;;;1.63;100.00
23341;BME280;12239;53.404;23.492;2022-09-25T03:00:08;99649.19;;;1.67;100.00
23341;BME280;12239;53.404;23.492;2022-09-25T03:02:41;99650.17;;;1.71;100.00
23341;BME280;12239;53.404;23.492;2022-09-25T03:05:14;99650.39;;;1.75;100.00
23341;BME280;12239;53.404;23.492;2022-09-25T03:07:45;99647.80;;;1.80;100.00
23341;BME280;12239;53.404;23.492;2022-09-25T03:10:32;99648.61;;;1.85;100.00
23341;BME280;12239;53.404;23.492;2022-09-25T03:13:16;99645.77;;;1.88;100.00
23341;BME280;12239;53.404;23.492;2022-09-25T03:16:07;99645.46;;;1.93;100.00
23341;BME280;12239;53.404;23.492;2022-09-25T03:18:37;99646.66;;;1.97;100.00
23341;BME280;12239;53.404;23.492;2022-09-25T03:21:09;99642.67;;;1.99;100.00
23341;BME280;12239;53.404;23.492;2022-09-25T03:23:42;99637.95;;;2.02;100.00
23341;BME280;12239;53.404;23.492;2022-09-25T03:26:13;99641.80;;;2.07;100.00
23341;BME280;12239;53.404;23.492;2022-09-25T03:29:03;99643.60;;;2.12;100.00
23341;BME280;12239;53.404;23.492;2022-09-25T03:31:33;99642.35;;;2.15;100.00
23341;BME280;12239;53.404;23.492;2022-09-25T03:34:22;99639.85;;;2.20;100.00
23341;BME280;12239;53.404;23.492;2022-09-25T03:36:54;99639.48;;;2.20;100.00
23341;BME280;12239;53.404;23.492;2022-09-25T03:39:23;99636.44;;;2.17;100.00
23341;BME280;12239;53.404;23.492;2022-09-25T03:41:54;99636.45;;;2.12;100.00
23341;BME280;12239;53.404;23.492;2022-09-25T03:44:26;99637.63;;;2.05;100.00
23341;BME280;12239;53.404;23.492;2022-09-25T03:46:58;99639.80;;;2.00;100.00
23341;BME280;12239;53.404;23.492;2022-09-25T03:49:28;99640.86;;;1.94;100.00
23341;BME280;12239;53.404;23.492;2022-09-25T03:52:17;99635.45;;;1.87;100.00
23341;BME280;12239;53.404;23.492;2022-09-25T03:54:47;99637.21;;;1.81;100.00
23341;BME280;12239;53.404;23.492;2022-09-25T03:57:36;99635.64;;;1.77;100.00
23341;BME280;12239;53.404;23.492;2022-09-25T04:00:06;99633.73;;;1.73;100.00
23341;BME280;12239;53.404;23.492;2022-09-25T04:02:45;99630.17;;;1.68;100.00
23341;BME280;12239;53.404;23.492;2022-09-25T04:05:21;99629.69;;;1.66;100.00
23341;BME280;12239;53.404;23.492;2022-09-25T04:07:50;99632.54;;;1.63;100.00
23341;BME280;12239;53.404;23.492;2022-09-25T04:10:20;99630.27;;;1.61;100.00
23341;BME280;12239;53.404;23.492;2022-09-25T04:12:51;99630.65;;;1.59;100.00
23341;BME280;12239;53.404;23.492;2022-09-25T04:15:21;99631.94;;;1.58;100.00
23341;BME280;12239;53.404;23.492;2022-09-25T04:17:50;99636.20;;;1.57;100.00
23341;BME280;12239;53.404;23.492;2022-09-25T04:20:20;99637.58;;;1.57;100.00
23341;BME280;12239;53.404;23.492;2022-09-25T04:22:50;99634.03;;;1.57;100.00
23341;BME280;12239;53.404;23.492;2022-09-25T04:25:19;99632.98;;;1.59;100.00
23341;BME280;12239;53.404;23.492;2022-09-25T04:27:52;99631.52;;;1.62;100.00
23341;BME280;12239;53.404;23.492;2022-09-25T04:30:23;99632.54;;;1.67;100.00
23341;BME280;12239;53.404;23.492;2022-09-25T04:33:13;99628.95;;;1.75;100.00
23341;BME280;12239;53.404;23.492;2022-09-25T04:36:00;99628.16;;;1.80;100.00
23341;BME280;12239;53.404;23.492;2022-09-25T04:38:49;99634.25;;;1.85;100.00
23341;BME280;12239;53.404;23.492;2022-09-25T04:41:21;99633.85;;;1.89;100.00
23341;BME280;12239;53.404;23.492;2022-09-25T04:43:51;99634.39;;;1.94;100.00
23341;BME280;12239;53.404;23.492;2022-09-25T04:46:20;99635.17;;;2.00;100.00
23341;BME280;12239;53.404;23.492;2022-09-25T04:48:49;99635.77;;;2.10;100.00
23341;BME280;12239;53.404;23.492;2022-09-25T04:51:18;99636.51;;;2.17;100.00
23341;BME280;12239;53.404;23.492;2022-09-25T04:53:48;99636.18;;;2.22;100.00
23341;BME280;12239;53.404;23.492;2022-09-25T04:56:20;99636.55;;;2.27;100.00
23341;BME280;12239;53.404;23.492;2022-09-25T04:58:49;99633.10;;;2.29;100.00
23341;BME280;12239;53.404;23.492;2022-09-25T05:01:21;99631.52;;;2.34;100.00
23341;BME280;12239;53.404;23.492;2022-09-25T05:03:50;99631.38;;;2.42;100.00
23341;BME280;12239;53.404;23.492;2022-09-25T05:06:20;99627.14;;;2.50;100.00
23341;BME280;12239;53.404;23.492;2022-09-25T05:08:50;99623.68;;;2.58;100.00
23341;BME280;12239;53.404;23.492;2022-09-25T05:11:19;99621.58;;;2.65;100.00
23341;BME280;12239;53.404;23.492;2022-09-25T05:13:49;99621.27;;;2.70;100.00
23341;BME280;12239;53.404;23.492;2022-09-25T05:16:18;99617.98;;;2.76;100.00
23341;BME280;12239;53.404;23.492;2022-09-25T05:18:48;99617.52;;;2.80;100.00
23341;BME280;12239;53.404;23.492;2022-09-25T05:21:17;99620.11;;;2.87;100.00
23341;BME280;12239;53.404;23.492;2022-09-25T05:23:46;99619.85;;;2.96;100.00
23341;BME280;12239;53.404;23.492;2022-09-25T05:26:16;99624.41;;;3.07;100.00
23341;BME280;12239;53.404;23.492;2022-09-25T05:28:48;99624.45;;;3.18;100.00
23341;BME280;12239;53.404;23.492;2022-09-25T05:31:18;99624.66;;;3.29;100.00
23341;BME280;12239;53.404;23.492;2022-09-25T05:33:47;99624.64;;;3.41;100.00
23341;BME280;12239;53.404;23.492;2022-09-25T05:36:16;99628.23;;;3.52;100.00
23341;BME280;12239;53.404;23.492;2022-09-25T05:38:48;99626.42;;;3.65;100.00
23341;BME280;12239;53.404;23.492;2022-09-25T05:41:17;99629.77;;;3.77;100.00
23341;BME280;12239;53.404;23.492;2022-09-25T05:43:50;99631.50;;;3.90;100.00
23341;BME280;12239;53.404;23.492;2022-09-25T05:46:20;99633.45;;;4.03;100.00
23341;BME280;12239;53.404;23.492;2022-09-25T05:48:49;99637.27;;;4.12;100.00
23341;BME280;12239;53.404;23.492;2022-09-25T05:51:21;99634.66;;;4.20;100.00
23341;BME280;12239;53.404;23.492;2022-09-25T05:54:10;99635.32;;;4.28;100.00
23341;BME280;12239;53.404;23.492;2022-09-25T05:56:42;99644.58;;;4.36;100.00
23341;BME280;12239;53.404;23.492;2022-09-25T05:59:11;99644.63;;;4.43;100.00
23341;BME280;12239;53.404;23.492;2022-09-25T06:01:43;99646.27;;;4.51;100.00
23341;BME280;12239;53.404;23.492;2022-09-25T06:04:12;99643.14;;;4.60;100.00
23341;BME280;12239;53.404;23.492;2022-09-25T06:06:44;99641.84;;;4.72;100.00
23341;BME280;12239;53.404;23.492;2022-09-25T06:09:13;99645.34;;;4.83;100.00
23341;BME280;12239;53.404;23.492;2022-09-25T06:11:51;99643.66;;;4.94;100.00
23341;BME280;12239;53.404;23.492;2022-09-25T06:14:23;99643.19;;;5.05;100.00
23341;BME280;12239;53.404;23.492;2022-09-25T06:17:02;99637.84;;;5.19;100.00
23341;BME280;12239;53.404;23.492;2022-09-25T06:19:51;99639.34;;;5.33;100.00
23341;BME280;12239;53.404;23.492;2022-09-25T06:22:21;99637.11;;;5.48;100.00
23341;BME280;12239;53.404;23.492;2022-09-25T06:24:50;99637.45;;;5.63;100.00
23341;BME280;12239;53.404;23.492;2022-09-25T06:27:19;99636.27;;;5.81;100.00
23341;BME280;12239;53.404;23.492;2022-09-25T06:29:48;99632.58;;;5.99;100.00
23341;BME280;12239;53.404;23.492;2022-09-25T06:32:17;99630.59;;;6.19;100.00
23341;BME280;12239;53.404;23.492;2022-09-25T06:34:48;99630.44;;;6.39;100.00
23341;BME280;12239;53.404;23.492;2022-09-25T06:37:17;99632.77;;;6.58;100.00
23341;BME280;12239;53.404;23.492;2022-09-25T06:39:46;99634.09;;;6.78;100.00
23341;BME280;12239;53.404;23.492;2022-09-25T06:42:17;99631.33;;;6.98;100.00
23341;BME280;12239;53.404;23.492;2022-09-25T06:44:46;99632.73;;;7.18;100.00
23341;BME280;12239;53.404;23.492;2022-09-25T06:47:15;99632.00;;;7.37;100.00
23341;BME280;12239;53.404;23.492;2022-09-25T06:49:47;99633.30;;;7.56;100.00
23341;BME280;12239;53.404;23.492;2022-09-25T06:52:16;99629.94;;;7.72;100.00
23341;BME280;12239;53.404;23.492;2022-09-25T06:55:01;99630.27;;;7.91;100.00
23341;BME280;12239;53.404;23.492;2022-09-25T06:57:30;99633.99;;;8.06;100.00
23341;BME280;12239;53.404;23.492;2022-09-25T07:00:02;99631.29;;;8.20;100.00
23341;BME280;12239;53.404;23.492;2022-09-25T07:02:35;99636.69;;;8.27;100.00
23341;BME280;12239;53.404;23.492;2022-09-25T07:05:42;99634.84;;;8.37;100.00
23341;BME280;12239;53.404;23.492;2022-09-25T07:08:11;99636.11;;;8.50;100.00
23341;BME280;12239;53.404;23.492;2022-09-25T07:10:45;99634.05;;;8.60;100.00
23341;BME280;12239;53.404;23.492;2022-09-25T07:13:24;99632.41;;;8.69;100.00
23341;BME280;12239;53.404;23.492;2022-09-25T07:15:56;99633.84;;;8.78;100.00
23341;BME280;12239;53.404;23.492;2022-09-25T07:18:46;99635.27;;;8.89;100.00
23341;BME280;12239;53.404;23.492;2022-09-25T07:21:24;99636.84;;;9.00;100.00
23341;BME280;12239;53.404;23.492;2022-09-25T07:23:56;99636.71;;;9.13;100.00
23341;BME280;12239;53.404;23.492;2022-09-25T07:26:26;99636.27;;;9.32;100.00
23341;BME280;12239;53.404;23.492;2022-09-25T07:28:56;99636.14;;;9.53;100.00
23341;BME280;12239;53.404;23.492;2022-09-25T07:31:29;99634.20;;;9.75;100.00
23341;BME280;12239;53.404;23.492;2022-09-25T07:33:58;99636.83;;;9.96;100.00
23341;BME280;12239;53.404;23.492;2022-09-25T07:36:49;99634.15;;;10.18;100.00
23341;BME280;12239;53.404;23.492;2022-09-25T07:39:28;99631.80;;;10.39;100.00
23341;BME280;12239;53.404;23.492;2022-09-25T07:41:59;99627.80;;;10.57;100.00
23341;BME280;12239;53.404;23.492;2022-09-25T07:44:30;99625.64;;;10.74;100.00
23341;BME280;12239;53.404;23.492;2022-09-25T07:47:08;99631.31;;;10.90;100.00
23341;BME280;12239;53.404;23.492;2022-09-25T07:49:41;99636.56;;;11.02;100.00
23341;BME280;12239;53.404;23.492;2022-09-25T07:52:18;99633.59;;;11.02;100.00
23341;BME280;12239;53.404;23.492;2022-09-25T07:54:47;99631.91;;;10.99;100.00
23341;BME280;12239;53.404;23.492;2022-09-25T07:57:37;99630.91;;;11.04;100.00
23341;BME280;12239;53.404;23.492;2022-09-25T08:00:12;99625.19;;;11.13;100.00
23341;BME280;12239;53.404;23.492;2022-09-25T08:02:41;99620.80;;;11.27;100.00
23341;BME280;12239;53.404;23.492;2022-09-25T08:05:13;99618.43;;;11.46;100.00
23341;BME280;12239;53.404;23.492;2022-09-25T08:07:42;99614.54;;;11.64;99.64
23341;BME280;12239;53.404;23.492;2022-09-25T08:10:14;99613.77;;;11.83;96.31
23341;BME280;12239;53.404;23.492;2022-09-25T08:12:46;99607.45;;;12.05;95.64
23341;BME280;12239;53.404;23.492;2022-09-25T08:15:16;99611.08;;;12.25;94.86
23341;BME280;12239;53.404;23.492;2022-09-25T08:17:54;99609.60;;;12.41;92.96
23341;BME280;12239;53.404;23.492;2022-09-25T08:20:23;99605.61;;;12.54;89.69
23341;BME280;12239;53.404;23.492;2022-09-25T08:23:13;99607.28;;;12.62;90.25
23341;BME280;12239;53.404;23.492;2022-09-25T08:25:42;99603.80;;;12.70;89.51
23341;BME280;12239;53.404;23.492;2022-09-25T08:28:14;99602.57;;;12.79;89.06
23341;BME280;12239;53.404;23.492;2022-09-25T08:30:47;99600.95;;;12.92;88.21
23341;BME280;12239;53.404;23.492;2022-09-25T08:33:16;99598.67;;;12.95;86.47
23341;BME280;12239;53.404;23.492;2022-09-25T08:35:55;99595.09;;;12.91;88.01
23341;BME280;12239;53.404;23.492;2022-09-25T08:38:28;99595.67;;;12.98;87.76
23341;BME280;12239;53.404;23.492;2022-09-25T08:41:01;99591.58;;;13.05;87.27
23341;BME280;12239;53.404;23.492;2022-09-25T08:43:31;99598.39;;;13.13;87.89
23341;BME280;12239;53.404;23.492;2022-09-25T08:46:04;99598.74;;;13.21;87.32
23341;BME280;12239;53.404;23.492;2022-09-25T08:49:16;99596.68;;;13.26;85.58
23341;BME280;12239;53.404;23.492;2022-09-25T08:52:11;99595.96;;;13.19;86.08
23341;BME280;12239;53.404;23.492;2022-09-25T08:55:01;99597.45;;;13.21;85.11
23341;BME280;12239;53.404;23.492;2022-09-25T08:57:32;99589.27;;;13.24;85.68
23341;BME280;12239;53.404;23.492;2022-09-25T09:00:26;99587.95;;;13.30;83.92
23341;BME280;12239;53.404;23.492;2022-09-25T09:03:15;99586.52;;;13.33;85.34
23341;BME280;12239;53.404;23.492;2022-09-25T09:05:45;99587.05;;;13.38;85.97
23341;BME280;12239;53.404;23.492;2022-09-25T09:08:16;99585.02;;;13.43;86.12
23341;BME280;12239;53.404;23.492;2022-09-25T09:10:49;99581.99;;;13.36;85.57
23341;BME280;12239;53.404;23.492;2022-09-25T09:13:21;99581.90;;;13.28;86.15
23341;BME280;12239;53.404;23.492;2022-09-25T09:15:53;99581.38;;;13.27;87.84
23341;BME280;12239;53.404;23.492;2022-09-25T09:18:45;99577.48;;;13.39;87.06
23341;BME280;12239;53.404;23.492;2022-09-25T09:21:15;99576.23;;;13.49;85.94
23341;BME280;12239;53.404;23.492;2022-09-25T09:23:50;99574.20;;;13.55;85.99
23341;BME280;12239;53.404;23.492;2022-09-25T09:26:22;99574.65;;;13.61;87.05
23341;BME280;12239;53.404;23.492;2022-09-25T09:29:00;99572.09;;;13.74;86.24
23341;BME280;12239;53.404;23.492;2022-09-25T09:31:38;99565.52;;;13.86;84.02
23341;BME280;12239;53.404;23.492;2022-09-25T09:34:39;99556.39;;;13.86;82.13
23341;BME280;12239;53.404;23.492;2022-09-25T09:37:17;99557.27;;;13.79;79.27
23341;BME280;12239;53.404;23.492;2022-09-25T09:40:01;99555.44;;;13.75;79.44
23341;BME280;12239;53.404;23.492;2022-09-25T09:42:57;99544.10;;;13.80;80.13
23341;BME280;12239;53.404;23.492;2022-09-25T09:45:37;99548.94;;;13.85;75.59
23341;BME280;12239;53.404;23.492;2022-09-25T09:48:32;99545.42;;;13.90;73.74
23341;BME280;12239;53.404;23.492;2022-09-25T09:51:04;99545.20;;;13.92;74.12
23341;BME280;12239;53.404;23.492;2022-09-25T09:53:40;99544.41;;;13.91;72.89
23341;BME280;12239;53.404;23.492;2022-09-25T09:56:15;99534.88;;;13.85;73.50
23341;BME280;12239;53.404;23.492;2022-09-25T09:59:10;99537.92;;;13.90;73.18
23341;BME280;12239;53.404;23.492;2022-09-25T10:02:02;99529.30;;;13.96;71.83
23341;BME280;12239;53.404;23.492;2022-09-25T10:04:53;99534.28;;;14.02;71.66
23341;BME280;12239;53.404;23.492;2022-09-25T10:07:43;99529.09;;;14.10;73.67
23341;BME280;12239;53.404;23.492;2022-09-25T10:10:17;99524.60;;;14.18;73.04
23341;BME280;12239;53.404;23.492;2022-09-25T10:12:56;99519.11;;;14.26;69.43
23341;BME280;12239;53.404;23.492;2022-09-25T10:15:29;99517.11;;;14.30;70.64
23341;BME280;12239;53.404;23.492;2022-09-25T10:18:21;99514.47;;;14.43;71.00
23341;BME280;12239;53.404;23.492;2022-09-25T10:21:14;99511.36;;;14.62;68.71
23341;BME280;12239;53.404;23.492;2022-09-25T10:23:47;99508.67;;;14.66;66.12
23341;BME280;12239;53.404;23.492;2022-09-25T10:26:24;99501.33;;;14.69;68.84
23341;BME280;12239;53.404;23.492;2022-09-25T10:28:54;99498.84;;;14.80;69.15
23341;BME280;12239;53.404;23.492;2022-09-25T10:31:25;99496.63;;;14.90;70.03
23341;BME280;12239;53.404;23.492;2022-09-25T10:34:17;99490.32;;;15.09;68.70
23341;BME280;12239;53.404;23.492;2022-09-25T10:36:49;99485.41;;;15.27;66.67
23341;BME280;12239;53.404;23.492;2022-09-25T10:39:24;99479.42;;;15.31;65.34
23341;BME280;12239;53.404;23.492;2022-09-25T10:41:55;99481.21;;;15.26;65.96
23341;BME280;12239;53.404;23.492;2022-09-25T10:44:29;99480.00;;;15.23;65.88
23341;BME280;12239;53.404;23.492;2022-09-25T10:47:28;99479.14;;;15.09;63.24
23341;BME280;12239;53.404;23.492;2022-09-25T10:50:36;99474.05;;;14.91;64.59
23341;BME280;12239;53.404;23.492;2022-09-25T10:53:22;99471.42;;;14.80;64.57
23341;BME280;12239;53.404;23.492;2022-09-25T10:56:00;99469.52;;;14.74;64.96
23341;BME280;12239;53.404;23.492;2022-09-25T10:58:34;99470.52;;;14.65;64.69
23341;BME280;12239;53.404;23.492;2022-09-25T11:01:07;99460.98;;;14.58;64.96
23341;BME280;12239;53.404;23.492;2022-09-25T11:03:43;99460.80;;;14.61;65.11
23341;BME280;12239;53.404;23.492;2022-09-25T11:06:33;99457.14;;;14.80;66.40
23341;BME280;12239;53.404;23.492;2022-09-25T11:09:13;99454.87;;;14.95;66.17
23341;BME280;12239;53.404;23.492;2022-09-25T11:12:05;99453.23;;;15.03;65.41
23341;BME280;12239;53.404;23.492;2022-09-25T11:14:37;99452.53;;;15.03;66.10
23341;BME280;12239;53.404;23.492;2022-09-25T11:20:22;99447.77;;;15.19;64.59
23341;BME280;12239;53.404;23.492;2022-09-25T11:23:16;99442.85;;;15.33;63.71
23341;BME280;12239;53.404;23.492;2022-09-25T11:25:52;99436.44;;;15.43;63.16
23341;BME280;12239;53.404;23.492;2022-09-25T11:28:45;99434.77;;;15.51;63.38
23341;BME280;12239;53.404;23.492;2022-09-25T11:31:38;99438.79;;;15.49;63.67
23341;BME280;12239;53.404;23.492;2022-09-25T11:34:13;99434.80;;;15.48;65.35
23341;BME280;12239;53.404;23.492;2022-09-25T11:37:07;99426.38;;;15.50;64.94
23341;BME280;12239;53.404;23.492;2022-09-25T11:39:44;99425.73;;;15.42;64.59
23341;BME280;12239;53.404;23.492;2022-09-25T11:42:44;99427.57;;;15.34;65.00
23341;BME280;12239;53.404;23.492;2022-09-25T11:45:17;99425.25;;;15.32;66.46
23341;BME280;12239;53.404;23.492;2022-09-25T11:47:49;99424.83;;;15.35;65.45
23341;BME280;12239;53.404;23.492;2022-09-25T11:50:29;99425.25;;;15.34;64.28
23341;BME280;12239;53.404;23.492;2022-09-25T11:53:24;99424.05;;;15.37;64.12
23341;BME280;12239;53.404;23.492;2022-09-25T11:55:59;99416.27;;;15.38;64.30
23341;BME280;12239;53.404;23.492;2022-09-25T11:58:34;99417.04;;;15.41;64.22
23341;BME280;12239;53.404;23.492;2022-09-25T12:01:12;99413.13;;;15.43;61.83
23341;BME280;12239;53.404;23.492;2022-09-25T12:07:03;99401.60;;;15.41;62.01
23341;BME280;12239;53.404;23.492;2022-09-25T12:09:38;99409.39;;;15.29;61.78
23341;BME280;12239;53.404;23.492;2022-09-25T12:12:16;99409.43;;;15.24;62.89
23341;BME280;12239;53.404;23.492;2022-09-25T12:15:10;99404.61;;;15.22;62.75
23341;BME280;12239;53.404;23.492;2022-09-25T12:17:48;99404.34;;;15.22;63.33
23341;BME280;12239;53.404;23.492;2022-09-25T12:20:32;99406.33;;;15.28;63.65
23341;BME280;12239;53.404;23.492;2022-09-25T12:23:10;99405.52;;;15.32;62.70
23341;BME280;12239;53.404;23.492;2022-09-25T12:25:48;99410.39;;;15.36;62.19
23341;BME280;12239;53.404;23.492;2022-09-25T12:28:25;99405.27;;;15.33;62.00
23341;BME280;12239;53.404;23.492;2022-09-25T12:30:59;99403.95;;;15.24;62.13
23341;BME280;12239;53.404;23.492;2022-09-25T12:33:54;99402.97;;;15.12;63.72
23341;BME280;12239;53.404;23.492;2022-09-25T12:36:27;99399.49;;;15.12;64.95
23341;BME280;12239;53.404;23.492;2022-09-25T12:39:06;99393.73;;;15.11;63.39
23341;BME280;12239;53.404;23.492;2022-09-25T12:41:39;99391.73;;;15.06;63.84
23341;BME280;12239;53.404;23.492;2022-09-25T12:44:11;99391.46;;;15.01;63.22
23341;BME280;12239;53.404;23.492;2022-09-25T12:46:46;99391.66;;;14.95;64.02
23341;BME280;12239;53.404;23.492;2022-09-25T12:49:17;99390.79;;;14.84;63.40
23341;BME280;12239;53.404;23.492;2022-09-25T12:51:52;99394.30;;;14.63;63.29
23341;BME280;12239;53.404;23.492;2022-09-25T12:54:23;99394.45;;;14.49;64.59
23341;BME280;12239;53.404;23.492;2022-09-25T12:57:17;99393.69;;;14.46;65.56
23341;BME280;12239;53.404;23.492;2022-09-25T12:59:53;99397.95;;;14.36;66.81
23341;BME280;12239;53.404;23.492;2022-09-25T13:02:32;99399.45;;;14.28;67.89
23341;BME280;12239;53.404;23.492;2022-09-25T13:05:07;99400.33;;;14.18;67.66
23341;BME280;12239;53.404;23.492;2022-09-25T13:08:01;99392.44;;;14.16;68.75
23341;BME280;12239;53.404;23.492;2022-09-25T13:10:37;99394.54;;;14.22;65.45
23341;BME280;12239;53.404;23.492;2022-09-25T13:13:10;99391.20;;;14.19;65.03
23341;BME280;12239;53.404;23.492;2022-09-25T13:15:42;99390.27;;;14.16;65.42
23341;BME280;12239;53.404;23.492;2022-09-25T13:18:13;99387.02;;;14.11;65.34
23341;BME280;12239;53.404;23.492;2022-09-25T13:20:50;99385.73;;;14.05;66.90
23341;BME280;12239;53.404;23.492;2022-09-25T13:23:40;99386.63;;;14.00;68.53
23341;BME280;12239;53.404;23.492;2022-09-25T13:26:11;99386.77;;;13.99;67.40
23341;BME280;12239;53.404;23.492;2022-09-25T13:29:02;99384.67;;;13.87;66.89
23341;BME280;12239;53.404;23.492;2022-09-25T13:31:52;99385.37;;;13.81;67.84
23341;BME280;12239;53.404;23.492;2022-09-25T13:34:30;99387.38;;;13.81;68.07
23341;BME280;12239;53.404;23.492;2022-09-25T13:37:24;99383.20;;;13.78;67.74
23341;BME280;12239;53.404;23.492;2022-09-25T13:40:13;99382.45;;;13.72;67.71
23341;BME280;12239;53.404;23.492;2022-09-25T13:43:21;99374.87;;;13.67;68.51
23341;BME280;12239;53.404;23.492;2022-09-25T13:48:36;99373.92;;;13.52;68.90
23341;BME280;12239;53.404;23.492;2022-09-25T13:51:30;99373.31;;;13.49;69.26